sensor_id;sensor_type;location;lat;lon;timestamp;temperature;humidity
43607;DHT22;29197;44.788;10.366;2023-05-07T00:01:47;22.10;99.90
43607;DHT22;29197;44.788;10.366;2023-05-07T00:04:37;22.10;99.90
43607;DHT22;29197;44.788;10.366;2023-05-07T00:07:26;22.10;99.90
43607;DHT22;29197;44.788;10.366;2023-05-07T00:10:14;22.10;99.90
43607;DHT22;29197;44.788;10.366;2023-05-07T00:13:03;22.10;99.90
43607;DHT22;29197;44.788;10.366;2023-05-07T00:15:51;22.10;99.90
43607;DHT22;29197;44.788;10.366;2023-05-07T00:18:40;22.00;99.90
43607;DHT22;29197;44.788;10.366;2023-05-07T00:21:30;22.00;99.90
43607;DHT22;29197;44.788;10.366;2023-05-07T00:24:19;22.00;99.90
43607;DHT22;29197;44.788;10.366;2023-05-07T00:27:07;22.00;99.90
43607;DHT22;29197;44.788;10.366;2023-05-07T00:29:56;22.00;99.90
43607;DHT22;29197;44.788;10.366;2023-05-07T00:32:44;21.90;99.90
43607;DHT22;29197;44.788;10.366;2023-05-07T00:35:33;21.90;99.90
43607;DHT22;29197;44.788;10.366;2023-05-07T00:38:23;21.10;99.90
43607;DHT22;29197;44.788;10.366;2023-05-07T00:41:11;21.20;99.90
43607;DHT22;29197;44.788;10.366;2023-05-07T00:44:00;21.40;99.90
43607;DHT22;29197;44.788;10.366;2023-05-07T00:46:49;21.40;99.90
43607;DHT22;29197;44.788;10.366;2023-05-07T00:49:39;21.60;99.90
43607;DHT22;29197;44.788;10.366;2023-05-07T00:52:28;20.60;99.90
43607;DHT22;29197;44.788;10.366;2023-05-07T00:55:19;21.50;99.90
43607;DHT22;29197;44.788;10.366;2023-05-07T00:58:08;21.50;99.90
43607;DHT22;29197;44.788;10.366;2023-05-07T01:00:59;21.50;99.90
43607;DHT22;29197;44.788;10.366;2023-05-07T01:03:48;21.50;99.90
43607;DHT22;29197;44.788;10.366;2023-05-07T01:06:37;21.60;99.90
43607;DHT22;29197;44.788;10.366;2023-05-07T01:09:28;21.60;99.90
43607;DHT22;29197;44.788;10.366;2023-05-07T01:12:18;21.60;99.90
43607;DHT22;29197;44.788;10.366;2023-05-07T01:15:08;21.70;99.90
43607;DHT22;29197;44.788;10.366;2023-05-07T01:17:57;21.70;99.90
43607;DHT22;29197;44.788;10.366;2023-05-07T01:20:46;21.70;99.90
43607;DHT22;29197;44.788;10.366;2023-05-07T01:23:36;21.70;99.90
43607;DHT22;29197;44.788;10.366;2023-05-07T01:26:25;21.70;99.90
43607;DHT22;29197;44.788;10.366;2023-05-07T01:29:14;21.70;99.90
43607;DHT22;29197;44.788;10.366;2023-05-07T01:32:03;21.60;99.90
43607;DHT22;29197;44.788;10.366;2023-05-07T01:34:53;21.60;99.90
43607;DHT22;29197;44.788;10.366;2023-05-07T01:37:42;21.60;99.90
43607;DHT22;29197;44.788;10.366;2023-05-07T01:40:32;21.60;99.90
43607;DHT22;29197;44.788;10.366;2023-05-07T01:43:21;21.60;99.90
43607;DHT22;29197;44.788;10.366;2023-05-07T01:46:10;21.60;99.90
43607;DHT22;29197;44.788;10.366;2023-05-07T01:48:59;21.60;99.90
43607;DHT22;29197;44.788;10.366;2023-05-07T01:51:48;21.60;99.90
43607;DHT22;29197;44.788;10.366;2023-05-07T01:54:37;21.60;99.90
43607;DHT22;29197;44.788;10.366;2023-05-07T01:57:27;21.60;99.90
43607;DHT22;29197;44.788;10.366;2023-05-07T02:00:16;21.60;99.90
43607;DHT22;29197;44.788;10.366;2023-05-07T02:03:04;21.50;99.90
43607;DHT22;29197;44.788;10.366;2023-05-07T02:05:53;21.50;99.90
43607;DHT22;29197;44.788;10.366;2023-05-07T02:08:41;21.50;99.90
43607;DHT22;29197;44.788;10.366;2023-05-07T02:11:30;21.40;99.90
43607;DHT22;29197;44.788;10.366;2023-05-07T02:14:20;21.40;99.90
43607;DHT22;29197;44.788;10.366;2023-05-07T02:17:08;21.40;99.90
43607;DHT22;29197;44.788;10.366;2023-05-07T02:19:57;21.30;99.90
43607;DHT22;29197;44.788;10.366;2023-05-07T02:22:45;21.40;99.90
43607;DHT22;29197;44.788;10.366;2023-05-07T02:25:34;21.30;99.90
43607;DHT22;29197;44.788;10.366;2023-05-07T02:28:22;21.30;99.90
43607;DHT22;29197;44.788;10.366;2023-05-07T02:31:12;21.20;99.90
43607;DHT22;29197;44.788;10.366;2023-05-07T02:34:01;21.20;99.90
43607;DHT22;29197;44.788;10.366;2023-05-07T02:36:49;21.20;99.90
43607;DHT22;29197;44.788;10.366;2023-05-07T02:39:38;21.20;99.90
43607;DHT22;29197;44.788;10.366;2023-05-07T02:42:26;21.20;99.90
43607;DHT22;29197;44.788;10.366;2023-05-07T02:45:15;21.20;99.90
43607;DHT22;29197;44.788;10.366;2023-05-07T02:48:05;21.20;99.90
43607;DHT22;29197;44.788;10.366;2023-05-07T02:50:54;21.10;99.90
43607;DHT22;29197;44.788;10.366;2023-05-07T02:53:43;20.80;99.90
43607;DHT22;29197;44.788;10.366;2023-05-07T02:56:31;20.80;99.90
43607;DHT22;29197;44.788;10.366;2023-05-07T02:59:20;20.70;99.90
43607;DHT22;29197;44.788;10.366;2023-05-07T03:02:08;20.60;99.90
43607;DHT22;29197;44.788;10.366;2023-05-07T03:04:58;20.50;99.90
43607;DHT22;29197;44.788;10.366;2023-05-07T03:07:47;20.50;99.90
43607;DHT22;29197;44.788;10.366;2023-05-07T03:10:35;20.70;99.90
43607;DHT22;29197;44.788;10.366;2023-05-07T03:13:24;20.70;99.90
43607;DHT22;29197;44.788;10.366;2023-05-07T03:16:13;20.60;99.90
43607;DHT22;29197;44.788;10.366;2023-05-07T03:19:01;20.60;99.90
43607;DHT22;29197;44.788;10.366;2023-05-07T03:21:51;20.60;99.90
43607;DHT22;29197;44.788;10.366;2023-05-07T03:24:40;20.60;99.90
43607;DHT22;29197;44.788;10.366;2023-05-07T03:27:29;20.70;99.90
43607;DHT22;29197;44.788;10.366;2023-05-07T03:30:17;20.70;99.90
43607;DHT22;29197;44.788;10.366;2023-05-07T03:33:06;20.70;99.90
43607;DHT22;29197;44.788;10.366;2023-05-07T03:35:55;20.70;99.90
43607;DHT22;29197;44.788;10.366;2023-05-07T03:38:44;20.70;99.90
43607;DHT22;29197;44.788;10.366;2023-05-07T03:41:33;20.70;99.90
43607;DHT22;29197;44.788;10.366;2023-05-07T03:44:22;20.60;99.90
43607;DHT22;29197;44.788;10.366;2023-05-07T03:47:11;20.50;99.90
43607;DHT22;29197;44.788;10.366;2023-05-07T03:50:00;20.60;99.90
43607;DHT22;29197;44.788;10.366;2023-05-07T03:52:48;20.40;99.90
43607;DHT22;29197;44.788;10.366;2023-05-07T03:55:38;20.30;99.90
43607;DHT22;29197;44.788;10.366;2023-05-07T03:58:27;20.00;99.90
43607;DHT22;29197;44.788;10.366;2023-05-07T04:01:15;19.90;99.90
43607;DHT22;29197;44.788;10.366;2023-05-07T04:04:04;19.10;99.90
43607;DHT22;29197;44.788;10.366;2023-05-07T04:06:52;19.90;99.90
43607;DHT22;29197;44.788;10.366;2023-05-07T04:09:41;20.20;99.90
43607;DHT22;29197;44.788;10.366;2023-05-07T04:12:31;20.20;99.90
43607;DHT22;29197;44.788;10.366;2023-05-07T04:15:19;20.30;99.90
43607;DHT22;29197;44.788;10.366;2023-05-07T04:18:08;20.30;99.90
43607;DHT22;29197;44.788;10.366;2023-05-07T04:20:56;20.40;99.90
43607;DHT22;29197;44.788;10.366;2023-05-07T04:23:46;20.40;99.90
43607;DHT22;29197;44.788;10.366;2023-05-07T04:26:34;20.40;99.90
43607;DHT22;29197;44.788;10.366;2023-05-07T04:29:24;20.50;99.90
43607;DHT22;29197;44.788;10.366;2023-05-07T04:32:13;20.50;99.90
43607;DHT22;29197;44.788;10.366;2023-05-07T04:35:01;20.50;99.90
43607;DHT22;29197;44.788;10.366;2023-05-07T04:37:50;20.50;99.90
43607;DHT22;29197;44.788;10.366;2023-05-07T04:40:38;20.50;99.90
43607;DHT22;29197;44.788;10.366;2023-05-07T04:43:27;20.50;99.90
43607;DHT22;29197;44.788;10.366;2023-05-07T04:46:17;20.40;99.90
43607;DHT22;29197;44.788;10.366;2023-05-07T04:49:05;20.40;99.90
43607;DHT22;29197;44.788;10.366;2023-05-07T04:51:54;20.40;99.90
43607;DHT22;29197;44.788;10.366;2023-05-07T04:54:42;20.40;99.90
43607;DHT22;29197;44.788;10.366;2023-05-07T04:57:31;20.40;99.90
43607;DHT22;29197;44.788;10.366;2023-05-07T05:00:19;20.10;99.90
43607;DHT22;29197;44.788;10.366;2023-05-07T05:28:32;19.80;99.90
43607;DHT22;29197;44.788;10.366;2023-05-07T05:31:20;19.80;99.90
43607;DHT22;29197;44.788;10.366;2023-05-07T05:34:09;20.00;99.90
43607;DHT22;29197;44.788;10.366;2023-05-07T05:37:00;20.10;99.90
43607;DHT22;29197;44.788;10.366;2023-05-07T05:39:48;20.10;99.90
43607;DHT22;29197;44.788;10.366;2023-05-07T05:42:37;20.20;99.90
43607;DHT22;29197;44.788;10.366;2023-05-07T05:48:14;20.50;99.90
43607;DHT22;29197;44.788;10.366;2023-05-07T05:51:03;20.50;99.90
43607;DHT22;29197;44.788;10.366;2023-05-07T05:53:53;20.50;99.90
43607;DHT22;29197;44.788;10.366;2023-05-07T05:56:42;20.30;99.90
43607;DHT22;29197;44.788;10.366;2023-05-07T06:05:08;20.00;99.90
43607;DHT22;29197;44.788;10.366;2023-05-07T06:07:57;19.90;99.90
43607;DHT22;29197;44.788;10.366;2023-05-07T06:10:47;19.90;99.90
43607;DHT22;29197;44.788;10.366;2023-05-07T06:13:35;20.20;99.90
43607;DHT22;29197;44.788;10.366;2023-05-07T06:22:05;20.90;99.90
43607;DHT22;29197;44.788;10.366;2023-05-07T06:24:53;20.80;99.90
43607;DHT22;29197;44.788;10.366;2023-05-07T06:27:43;20.90;99.90
43607;DHT22;29197;44.788;10.366;2023-05-07T06:30:32;20.90;99.90
43607;DHT22;29197;44.788;10.366;2023-05-07T06:36:09;20.30;99.90
43607;DHT22;29197;44.788;10.366;2023-05-07T06:38:57;20.50;99.90
43607;DHT22;29197;44.788;10.366;2023-05-07T06:41:46;20.60;99.90
43607;DHT22;29197;44.788;10.366;2023-05-07T06:44:36;20.90;99.90
43607;DHT22;29197;44.788;10.366;2023-05-07T06:47:24;20.90;99.90
43607;DHT22;29197;44.788;10.366;2023-05-07T06:50:13;21.20;99.90
43607;DHT22;29197;44.788;10.366;2023-05-07T06:53:03;21.40;99.90
43607;DHT22;29197;44.788;10.366;2023-05-07T06:55:52;21.80;99.90
43607;DHT22;29197;44.788;10.366;2023-05-07T06:58:41;21.70;99.90
43607;DHT22;29197;44.788;10.366;2023-05-07T07:01:31;21.70;99.90
43607;DHT22;29197;44.788;10.366;2023-05-07T07:04:19;21.50;99.90
43607;DHT22;29197;44.788;10.366;2023-05-07T07:07:09;21.30;99.90
43607;DHT22;29197;44.788;10.366;2023-05-07T07:09:58;21.30;99.90
43607;DHT22;29197;44.788;10.366;2023-05-07T07:12:46;20.40;99.90
43607;DHT22;29197;44.788;10.366;2023-05-07T07:15:35;21.10;99.90
43607;DHT22;29197;44.788;10.366;2023-05-07T07:18:25;21.50;99.90
43607;DHT22;29197;44.788;10.366;2023-05-07T07:21:13;21.50;99.90
43607;DHT22;29197;44.788;10.366;2023-05-07T07:24:02;21.80;99.90
43607;DHT22;29197;44.788;10.366;2023-05-07T07:32:28;22.00;99.90
43607;DHT22;29197;44.788;10.366;2023-05-07T08:03:31;23.50;99.90
43607;DHT22;29197;44.788;10.366;2023-05-07T08:06:20;23.40;99.90
43607;DHT22;29197;44.788;10.366;2023-05-07T08:09:10;23.50;99.90
43607;DHT22;29197;44.788;10.366;2023-05-07T08:11:58;23.60;99.90
43607;DHT22;29197;44.788;10.366;2023-05-07T08:14:48;23.70;99.90
43607;DHT22;29197;44.788;10.366;2023-05-07T08:17:36;23.70;99.90
43607;DHT22;29197;44.788;10.366;2023-05-07T08:20:25;23.70;99.90
43607;DHT22;29197;44.788;10.366;2023-05-07T08:23:14;23.70;99.90
43607;DHT22;29197;44.788;10.366;2023-05-07T08:26:04;23.80;99.90
43607;DHT22;29197;44.788;10.366;2023-05-07T08:28:52;23.70;99.90
43607;DHT22;29197;44.788;10.366;2023-05-07T08:31:41;23.70;99.90
43607;DHT22;29197;44.788;10.366;2023-05-07T08:34:30;23.90;99.90
43607;DHT22;29197;44.788;10.366;2023-05-07T08:37:18;24.00;99.90
43607;DHT22;29197;44.788;10.366;2023-05-07T08:40:07;24.10;99.90
43607;DHT22;29197;44.788;10.366;2023-05-07T08:43:02;23.90;99.90
43607;DHT22;29197;44.788;10.366;2023-05-07T08:45:53;23.90;99.90
43607;DHT22;29197;44.788;10.366;2023-05-07T08:48:42;24.00;99.90
43607;DHT22;29197;44.788;10.366;2023-05-07T08:51:31;24.00;99.90
43607;DHT22;29197;44.788;10.366;2023-05-07T08:54:20;24.10;99.90
43607;DHT22;29197;44.788;10.366;2023-05-07T08:57:09;24.00;99.90
43607;DHT22;29197;44.788;10.366;2023-05-07T08:59:59;24.00;99.90
43607;DHT22;29197;44.788;10.366;2023-05-07T09:02:47;24.20;99.90
43607;DHT22;29197;44.788;10.366;2023-05-07T09:05:36;24.20;99.90
43607;DHT22;29197;44.788;10.366;2023-05-07T09:08:26;24.20;99.90
43607;DHT22;29197;44.788;10.366;2023-05-07T09:11:15;24.30;99.90
43607;DHT22;29197;44.788;10.366;2023-05-07T09:14:03;24.40;99.90
43607;DHT22;29197;44.788;10.366;2023-05-07T09:16:55;24.60;99.90
43607;DHT22;29197;44.788;10.366;2023-05-07T09:19:44;24.70;99.90
43607;DHT22;29197;44.788;10.366;2023-05-07T09:22:33;24.80;99.90
43607;DHT22;29197;44.788;10.366;2023-05-07T09:25:28;25.00;99.90
43607;DHT22;29197;44.788;10.366;2023-05-07T09:28:17;25.00;99.90
43607;DHT22;29197;44.788;10.366;2023-05-07T09:31:06;25.00;99.90
43607;DHT22;29197;44.788;10.366;2023-05-07T09:33:56;25.00;99.90
43607;DHT22;29197;44.788;10.366;2023-05-07T09:36:45;25.00;99.90
43607;DHT22;29197;44.788;10.366;2023-05-07T09:39:41;25.10;99.90
43607;DHT22;29197;44.788;10.366;2023-05-07T09:42:30;25.20;99.90
43607;DHT22;29197;44.788;10.366;2023-05-07T09:45:22;25.30;99.90
43607;DHT22;29197;44.788;10.366;2023-05-07T09:48:12;25.40;99.90
43607;DHT22;29197;44.788;10.366;2023-05-07T09:51:10;25.50;99.90
43607;DHT22;29197;44.788;10.366;2023-05-07T09:54:00;25.40;99.90
43607;DHT22;29197;44.788;10.366;2023-05-07T09:56:52;25.50;99.90
43607;DHT22;29197;44.788;10.366;2023-05-07T09:59:42;25.50;99.90
43607;DHT22;29197;44.788;10.366;2023-05-07T10:02:32;25.60;99.90
43607;DHT22;29197;44.788;10.366;2023-05-07T10:05:24;25.50;99.90
43607;DHT22;29197;44.788;10.366;2023-05-07T10:08:15;25.60;99.90
43607;DHT22;29197;44.788;10.366;2023-05-07T10:11:04;25.60;99.90
43607;DHT22;29197;44.788;10.366;2023-05-07T10:13:53;25.70;99.90
43607;DHT22;29197;44.788;10.366;2023-05-07T10:16:42;25.70;99.90
43607;DHT22;29197;44.788;10.366;2023-05-07T10:19:33;25.80;99.90
43607;DHT22;29197;44.788;10.366;2023-05-07T10:22:24;25.80;99.90
43607;DHT22;29197;44.788;10.366;2023-05-07T10:25:18;25.90;99.90
43607;DHT22;29197;44.788;10.366;2023-05-07T10:28:10;26.00;99.90
43607;DHT22;29197;44.788;10.366;2023-05-07T10:31:08;26.10;99.90
43607;DHT22;29197;44.788;10.366;2023-05-07T10:36:49;26.40;99.90
43607;DHT22;29197;44.788;10.366;2023-05-07T10:39:39;26.30;99.90
43607;DHT22;29197;44.788;10.366;2023-05-07T10:42:30;26.30;99.90
43607;DHT22;29197;44.788;10.366;2023-05-07T10:45:19;26.30;99.90
43607;DHT22;29197;44.788;10.366;2023-05-07T10:48:09;26.60;99.90
43607;DHT22;29197;44.788;10.366;2023-05-07T10:57:41;26.90;99.90
43607;DHT22;29197;44.788;10.366;2023-05-07T11:09:09;27.10;99.90
43607;DHT22;29197;44.788;10.366;2023-05-07T11:11:57;27.30;99.90
43607;DHT22;29197;44.788;10.366;2023-05-07T11:17:53;27.40;99.90
43607;DHT22;29197;44.788;10.366;2023-05-07T11:20:59;27.40;99.90
43607;DHT22;29197;44.788;10.366;2023-05-07T11:41:06;28.00;99.90
43607;DHT22;29197;44.788;10.366;2023-05-07T11:55:13;28.80;99.90
43607;DHT22;29197;44.788;10.366;2023-05-07T11:58:06;28.80;99.90
43607;DHT22;29197;44.788;10.366;2023-05-07T12:00:57;28.90;99.90
43607;DHT22;29197;44.788;10.366;2023-05-07T12:03:45;29.10;99.90
43607;DHT22;29197;44.788;10.366;2023-05-07T13:17:29;29.80;99.90
43607;DHT22;29197;44.788;10.366;2023-05-07T13:20:19;29.80;99.90
43607;DHT22;29197;44.788;10.366;2023-05-07T13:23:07;30.00;99.90
43607;DHT22;29197;44.788;10.366;2023-05-07T13:25:56;30.20;99.90
43607;DHT22;29197;44.788;10.366;2023-05-07T13:28:45;30.20;99.90
43607;DHT22;29197;44.788;10.366;2023-05-07T13:31:35;30.20;99.90
43607;DHT22;29197;44.788;10.366;2023-05-07T13:34:24;30.30;99.90
43607;DHT22;29197;44.788;10.366;2023-05-07T13:37:12;30.10;99.90
43607;DHT22;29197;44.788;10.366;2023-05-07T13:40:02;30.20;99.90
43607;DHT22;29197;44.788;10.366;2023-05-07T13:42:51;30.30;99.90
43607;DHT22;29197;44.788;10.366;2023-05-07T13:45:39;30.30;99.90
43607;DHT22;29197;44.788;10.366;2023-05-07T13:48:29;30.40;99.90
43607;DHT22;29197;44.788;10.366;2023-05-07T13:51:18;30.30;99.90
43607;DHT22;29197;44.788;10.366;2023-05-07T13:54:06;30.20;99.90
43607;DHT22;29197;44.788;10.366;2023-05-07T13:56:55;30.10;99.90
43607;DHT22;29197;44.788;10.366;2023-05-07T13:59:43;30.20;99.90
43607;DHT22;29197;44.788;10.366;2023-05-07T14:02:32;30.20;99.90
43607;DHT22;29197;44.788;10.366;2023-05-07T14:05:23;30.20;99.90
43607;DHT22;29197;44.788;10.366;2023-05-07T14:08:12;30.30;99.90
43607;DHT22;29197;44.788;10.366;2023-05-07T14:11:01;30.40;99.90
43607;DHT22;29197;44.788;10.366;2023-05-07T14:13:49;30.50;99.90
43607;DHT22;29197;44.788;10.366;2023-05-07T14:16:38;30.50;99.90
43607;DHT22;29197;44.788;10.366;2023-05-07T14:19:27;30.50;99.90
43607;DHT22;29197;44.788;10.366;2023-05-07T14:22:18;30.40;99.90
43607;DHT22;29197;44.788;10.366;2023-05-07T14:25:07;30.40;99.90
43607;DHT22;29197;44.788;10.366;2023-05-07T14:27:56;30.40;99.90
43607;DHT22;29197;44.788;10.366;2023-05-07T14:30:45;30.30;99.90
43607;DHT22;29197;44.788;10.366;2023-05-07T14:33:34;30.30;99.90
43607;DHT22;29197;44.788;10.366;2023-05-07T14:36:22;30.30;99.90
43607;DHT22;29197;44.788;10.366;2023-05-07T14:56:11;29.60;99.90
43607;DHT22;29197;44.788;10.366;2023-05-07T14:58:59;29.60;99.90
43607;DHT22;29197;44.788;10.366;2023-05-07T15:01:48;29.10;99.90
43607;DHT22;29197;44.788;10.366;2023-05-07T15:04:37;29.50;99.90
43607;DHT22;29197;44.788;10.366;2023-05-07T15:07:27;29.40;99.90
43607;DHT22;29197;44.788;10.366;2023-05-07T15:10:16;29.30;99.90
43607;DHT22;29197;44.788;10.366;2023-05-07T15:13:06;29.30;99.90
43607;DHT22;29197;44.788;10.366;2023-05-07T15:15:55;29.10;99.90
43607;DHT22;29197;44.788;10.366;2023-05-07T15:18:44;29.10;99.90
43607;DHT22;29197;44.788;10.366;2023-05-07T15:21:32;29.10;99.90
43607;DHT22;29197;44.788;10.366;2023-05-07T15:24:22;29.00;99.90
43607;DHT22;29197;44.788;10.366;2023-05-07T15:27:11;29.00;99.90
43607;DHT22;29197;44.788;10.366;2023-05-07T15:30:01;29.10;99.90
43607;DHT22;29197;44.788;10.366;2023-05-07T15:32:49;29.10;99.90
43607;DHT22;29197;44.788;10.366;2023-05-07T15:35:38;29.10;99.90
43607;DHT22;29197;44.788;10.366;2023-05-07T15:38:27;29.10;99.90
43607;DHT22;29197;44.788;10.366;2023-05-07T15:41:15;29.00;99.90
43607;DHT22;29197;44.788;10.366;2023-05-07T15:44:04;29.00;99.90
43607;DHT22;29197;44.788;10.366;2023-05-07T16:26:24;28.10;99.90
43607;DHT22;29197;44.788;10.366;2023-05-07T16:29:13;28.10;99.90
43607;DHT22;29197;44.788;10.366;2023-05-07T16:32:02;27.90;99.90
43607;DHT22;29197;44.788;10.366;2023-05-07T16:34:50;27.70;99.90
43607;DHT22;29197;44.788;10.366;2023-05-07T16:37:40;27.60;99.90
43607;DHT22;29197;44.788;10.366;2023-05-07T16:40:29;27.50;99.90
43607;DHT22;29197;44.788;10.366;2023-05-07T16:43:17;27.60;99.90
43607;DHT22;29197;44.788;10.366;2023-05-07T16:46:06;27.40;99.90
43607;DHT22;29197;44.788;10.366;2023-05-07T16:48:55;27.40;99.90
43607;DHT22;29197;44.788;10.366;2023-05-07T16:51:44;27.30;99.90
43607;DHT22;29197;44.788;10.366;2023-05-07T16:54:36;27.20;99.90
43607;DHT22;29197;44.788;10.366;2023-05-07T16:57:26;27.20;99.90
43607;DHT22;29197;44.788;10.366;2023-05-07T17:00:15;27.20;99.90
43607;DHT22;29197;44.788;10.366;2023-05-07T17:03:04;27.20;99.90
43607;DHT22;29197;44.788;10.366;2023-05-07T17:05:53;27.30;99.90
43607;DHT22;29197;44.788;10.366;2023-05-07T17:08:42;27.30;99.90
43607;DHT22;29197;44.788;10.366;2023-05-07T17:11:33;27.20;99.90
43607;DHT22;29197;44.788;10.366;2023-05-07T17:14:21;27.20;99.90
43607;DHT22;29197;44.788;10.366;2023-05-07T17:17:10;27.10;99.90
43607;DHT22;29197;44.788;10.366;2023-05-07T19:07:08;25.60;99.90
43607;DHT22;29197;44.788;10.366;2023-05-07T19:09:59;25.50;99.90
43607;DHT22;29197;44.788;10.366;2023-05-07T19:13:05;25.40;99.90
43607;DHT22;29197;44.788;10.366;2023-05-07T19:15:53;25.30;99.90
43607;DHT22;29197;44.788;10.366;2023-05-07T19:18:42;25.40;99.90
43607;DHT22;29197;44.788;10.366;2023-05-07T19:21:31;25.30;99.90
43607;DHT22;29197;44.788;10.366;2023-05-07T19:24:19;25.20;99.90
43607;DHT22;29197;44.788;10.366;2023-05-07T19:27:09;25.20;99.90
43607;DHT22;29197;44.788;10.366;2023-05-07T19:29:58;25.20;99.90
43607;DHT22;29197;44.788;10.366;2023-05-07T19:32:46;25.20;99.90
43607;DHT22;29197;44.788;10.366;2023-05-07T19:35:35;25.30;99.90
43607;DHT22;29197;44.788;10.366;2023-05-07T19:38:24;25.30;99.90
43607;DHT22;29197;44.788;10.366;2023-05-07T19:41:13;25.20;99.90
43607;DHT22;29197;44.788;10.366;2023-05-07T19:44:03;25.20;99.90
43607;DHT22;29197;44.788;10.366;2023-05-07T19:46:51;25.10;99.90
43607;DHT22;29197;44.788;10.366;2023-05-07T19:49:40;25.10;99.90
43607;DHT22;29197;44.788;10.366;2023-05-07T19:52:29;25.90;99.90
43607;DHT22;29197;44.788;10.366;2023-05-07T19:55:17;24.90;99.90
43607;DHT22;29197;44.788;10.366;2023-05-07T19:58:06;25.10;99.90
43607;DHT22;29197;44.788;10.366;2023-05-07T20:00:56;25.10;99.90
43607;DHT22;29197;44.788;10.366;2023-05-07T20:03:45;25.10;99.90
43607;DHT22;29197;44.788;10.366;2023-05-07T20:06:34;25.10;99.90
43607;DHT22;29197;44.788;10.366;2023-05-07T20:09:22;25.00;99.90
43607;DHT22;29197;44.788;10.366;2023-05-07T20:12:11;25.00;99.90
43607;DHT22;29197;44.788;10.366;2023-05-07T20:17:50;24.80;99.90
43607;DHT22;29197;44.788;10.366;2023-05-07T20:20:38;24.90;99.90
43607;DHT22;29197;44.788;10.366;2023-05-07T20:34:45;24.70;99.90
43607;DHT22;29197;44.788;10.366;2023-05-07T20:40:22;24.30;99.90
43607;DHT22;29197;44.788;10.366;2023-05-07T20:43:11;24.30;99.90
43607;DHT22;29197;44.788;10.366;2023-05-07T20:45:59;24.40;99.90
43607;DHT22;29197;44.788;10.366;2023-05-07T20:48:48;24.30;99.90
43607;DHT22;29197;44.788;10.366;2023-05-07T20:51:39;24.40;99.90
43607;DHT22;29197;44.788;10.366;2023-05-07T20:54:27;24.50;99.90
43607;DHT22;29197;44.788;10.366;2023-05-07T20:57:16;24.50;99.90
43607;DHT22;29197;44.788;10.366;2023-05-07T21:00:06;24.40;99.90
43607;DHT22;29197;44.788;10.366;2023-05-07T21:02:55;24.40;99.90
43607;DHT22;29197;44.788;10.366;2023-05-07T21:05:49;24.50;99.90
43607;DHT22;29197;44.788;10.366;2023-05-07T21:08:40;24.50;99.90
43607;DHT22;29197;44.788;10.366;2023-05-07T21:11:28;24.60;99.90
43607;DHT22;29197;44.788;10.366;2023-05-07T21:14:17;24.50;99.90
43607;DHT22;29197;44.788;10.366;2023-05-07T21:17:05;24.40;99.90
43607;DHT22;29197;44.788;10.366;2023-05-07T21:19:54;24.30;99.90
43607;DHT22;29197;44.788;10.366;2023-05-07T21:22:43;24.20;99.90
43607;DHT22;29197;44.788;10.366;2023-05-07T21:25:36;24.20;99.90
43607;DHT22;29197;44.788;10.366;2023-05-07T21:28:24;24.20;99.90
43607;DHT22;29197;44.788;10.366;2023-05-07T21:31:13;24.20;99.90
43607;DHT22;29197;44.788;10.366;2023-05-07T21:34:02;24.20;99.90
43607;DHT22;29197;44.788;10.366;2023-05-07T21:36:50;24.20;99.90
43607;DHT22;29197;44.788;10.366;2023-05-07T21:39:39;24.20;99.90
43607;DHT22;29197;44.788;10.366;2023-05-07T21:42:28;24.10;99.90
43607;DHT22;29197;44.788;10.366;2023-05-07T21:45:17;24.10;99.90
43607;DHT22;29197;44.788;10.366;2023-05-07T21:48:06;24.00;99.90
43607;DHT22;29197;44.788;10.366;2023-05-07T21:51:01;24.00;99.90
43607;DHT22;29197;44.788;10.366;2023-05-07T21:53:50;24.10;99.90
43607;DHT22;29197;44.788;10.366;2023-05-07T21:56:38;24.10;99.90
43607;DHT22;29197;44.788;10.366;2023-05-07T21:59:28;24.10;99.90
43607;DHT22;29197;44.788;10.366;2023-05-07T22:02:17;24.20;99.90
43607;DHT22;29197;44.788;10.366;2023-05-07T22:05:05;24.20;99.90
43607;DHT22;29197;44.788;10.366;2023-05-07T22:07:54;24.20;99.90
43607;DHT22;29197;44.788;10.366;2023-05-07T22:10:43;24.20;99.90
43607;DHT22;29197;44.788;10.366;2023-05-07T22:13:32;24.20;99.90
43607;DHT22;29197;44.788;10.366;2023-05-07T22:16:22;24.00;99.90
43607;DHT22;29197;44.788;10.366;2023-05-07T22:19:10;24.00;99.90
43607;DHT22;29197;44.788;10.366;2023-05-07T22:22:00;24.00;99.90
43607;DHT22;29197;44.788;10.366;2023-05-07T22:24:49;24.00;99.90
43607;DHT22;29197;44.788;10.366;2023-05-07T22:27:38;24.10;99.90
43607;DHT22;29197;44.788;10.366;2023-05-07T22:30:27;24.00;99.90
43607;DHT22;29197;44.788;10.366;2023-05-07T22:33:17;24.00;99.90
43607;DHT22;29197;44.788;10.366;2023-05-07T22:36:06;24.00;99.90
43607;DHT22;29197;44.788;10.366;2023-05-07T22:38:55;23.90;99.90
43607;DHT22;29197;44.788;10.366;2023-05-07T22:41:43;23.80;99.90
43607;DHT22;29197;44.788;10.366;2023-05-07T22:44:32;23.80;99.90
43607;DHT22;29197;44.788;10.366;2023-05-07T22:47:21;23.90;99.90
43607;DHT22;29197;44.788;10.366;2023-05-07T22:50:11;23.80;99.90
